createdAt,value
2019-05-13T00:02:13.436Z,7.60
2019-05-13T00:04:44.194Z,7.70
2019-05-13T00:07:13.534Z,6.70
2019-05-13T00:09:44.230Z,7.70
2019-05-13T00:12:13.793Z,7.80
2019-05-13T00:14:43.480Z,7.80
2019-05-13T00:17:14.610Z,7.80
2019-05-13T00:19:44.257Z,7.80
2019-05-13T00:22:14.064Z,7.80
2019-05-13T00:24:44.270Z,7.50
2019-05-13T00:27:14.121Z,7.20
2019-05-13T00:29:44.379Z,7.00
2019-05-13T00:32:13.623Z,6.80
2019-05-13T00:34:44.554Z,6.60
2019-05-13T00:37:14.632Z,6.60
2019-05-13T00:39:44.300Z,6.60
2019-05-13T00:42:14.281Z,6.70
2019-05-13T00:44:44.312Z,6.70
2019-05-13T00:47:13.759Z,6.60
2019-05-13T00:49:43.729Z,6.60
2019-05-13T00:52:14.333Z,6.60
2019-05-13T00:54:44.140Z,6.60
2019-05-13T00:57:13.450Z,6.60
2019-05-13T00:59:44.311Z,6.60
2019-05-13T01:02:13.967Z,6.70
2019-05-13T01:04:44.151Z,6.00
2019-05-13T01:07:24.771Z,6.50
2019-05-13T01:09:44.408Z,6.30
2019-05-13T01:12:13.509Z,6.20
2019-05-13T01:14:43.212Z,6.10
2019-05-13T01:17:14.227Z,6.00
2019-05-13T01:19:43.375Z,5.40
2019-05-13T01:22:13.523Z,5.80
2019-05-13T01:24:44.218Z,5.80
2019-05-13T01:27:13.988Z,6.00
2019-05-13T01:29:43.529Z,5.90
2019-05-13T01:32:14.456Z,5.70
2019-05-13T01:34:44.311Z,5.60
2019-05-13T01:37:13.447Z,5.50
2019-05-13T01:39:43.728Z,5.50
2019-05-13T01:42:13.769Z,5.40
2019-05-13T01:44:43.738Z,5.50
2019-05-13T01:47:13.406Z,5.40
2019-05-13T01:49:43.987Z,5.50
2019-05-13T01:52:13.640Z,5.60
2019-05-13T01:54:44.280Z,5.60
2019-05-13T01:57:14.285Z,5.70
2019-05-13T01:59:44.040Z,5.70
2019-05-13T02:02:13.764Z,5.70
2019-05-13T02:04:43.897Z,5.70
2019-05-13T02:07:14.410Z,5.70
2019-05-13T02:09:44.300Z,5.70
2019-05-13T02:12:13.553Z,5.70
2019-05-13T02:14:44.429Z,5.70
2019-05-13T02:17:14.634Z,5.80
2019-05-13T02:19:44.259Z,5.80
2019-05-13T02:22:14.573Z,5.80
2019-05-13T02:24:44.666Z,5.80
2019-05-13T02:27:14.270Z,5.70
2019-05-13T02:29:43.668Z,5.60
2019-05-13T02:32:13.642Z,5.60
2019-05-13T02:34:43.922Z,5.60
2019-05-13T02:37:13.133Z,5.50
2019-05-13T02:39:42.913Z,5.60
2019-05-13T02:42:13.220Z,5.60
2019-05-13T02:44:43.717Z,5.50
2019-05-13T02:47:13.182Z,5.50
2019-05-13T02:49:43.078Z,5.60
2019-05-13T02:52:13.293Z,5.60
2019-05-13T02:54:42.860Z,5.60
2019-05-13T02:57:12.503Z,5.60
2019-05-13T02:59:42.418Z,5.50
2019-05-13T03:02:13.254Z,6.90
2019-05-13T03:04:43.455Z,5.60
2019-05-13T03:07:12.720Z,5.60
2019-05-13T03:09:42.252Z,5.60
2019-05-13T03:12:13.061Z,5.60
2019-05-13T03:14:48.086Z,4.40
2019-05-13T03:17:22.385Z,5.50
2019-05-13T03:19:52.971Z,5.50
2019-05-13T03:22:22.696Z,5.50
2019-05-13T03:24:52.426Z,5.60
2019-05-13T03:27:24.833Z,5.70
2019-05-13T03:29:53.334Z,5.60
2019-05-13T03:32:26.804Z,5.60
2019-05-13T03:34:56.258Z,5.50
2019-05-13T03:37:26.407Z,5.50
2019-05-13T03:39:55.611Z,6.40
2019-05-13T03:42:25.936Z,5.60
2019-05-13T03:44:55.506Z,5.50
2019-05-13T03:47:25.099Z,5.50
2019-05-13T03:49:57.236Z,5.50
2019-05-13T03:52:26.318Z,5.30
2019-05-13T03:54:55.685Z,5.30
2019-05-13T03:57:24.726Z,5.30
2019-05-13T03:59:53.947Z,5.20
2019-05-13T04:02:23.322Z,5.20
2019-05-13T04:04:53.185Z,5.10
2019-05-13T04:07:23.826Z,5.20
2019-05-13T04:09:53.153Z,5.30
2019-05-13T04:12:22.915Z,5.30
2019-05-13T04:14:52.949Z,5.30
2019-05-13T04:17:24.292Z,5.30
2019-05-13T04:19:53.106Z,5.40
2019-05-13T04:22:23.017Z,5.40
2019-05-13T04:24:53.165Z,5.50
2019-05-13T04:27:23.526Z,5.50
2019-05-13T04:29:52.937Z,5.50
2019-05-13T04:32:22.987Z,5.40
2019-05-13T04:34:53.023Z,5.40
2019-05-13T04:37:22.533Z,5.40
2019-05-13T04:39:56.137Z,5.40
2019-05-13T04:42:23.281Z,5.40
2019-05-13T04:44:53.421Z,5.40
2019-05-13T04:47:23.069Z,5.50
2019-05-13T04:49:53.460Z,5.60
2019-05-13T04:52:22.724Z,5.60
2019-05-13T04:54:52.822Z,5.70
2019-05-13T04:57:22.825Z,5.80
2019-05-13T04:59:55.092Z,5.90
2019-05-13T05:02:50.200Z,5.90
2019-05-13T05:05:35.958Z,5.90
2019-05-13T05:08:32.828Z,5.80
2019-05-13T05:11:32.276Z,5.80
2019-05-13T05:14:32.353Z,4.80
2019-05-13T05:17:22.545Z,6.20
2019-05-13T05:20:14.328Z,6.30
2019-05-13T05:23:01.916Z,6.40
2019-05-13T05:49:25.301Z,6.60
2019-05-13T05:54:39.212Z,6.60
2019-05-13T05:57:12.070Z,6.60
2019-05-13T05:59:53.255Z,6.60
2019-05-13T06:05:21.252Z,6.70
2019-05-13T06:07:51.424Z,6.70
2019-05-13T06:13:22.044Z,6.70
2019-05-13T06:18:52.295Z,6.80
2019-05-13T06:21:26.133Z,6.80
2019-05-13T06:35:44.871Z,7.00
2019-05-13T06:41:32.801Z,7.20
2019-05-13T06:52:32.105Z,7.70
2019-05-13T06:55:08.496Z,7.70
2019-05-13T06:57:37.855Z,7.80
2019-05-13T07:00:08.741Z,7.90
2019-05-13T07:02:42.537Z,7.80
2019-05-13T07:08:31.456Z,7.60
2019-05-13T07:14:03.633Z,7.90
2019-05-13T07:16:32.794Z,8.00
2019-05-13T07:27:24.398Z,8.60
2019-05-13T07:29:56.049Z,8.70
2019-05-13T07:32:31.501Z,8.70
2019-05-13T07:35:08.788Z,8.70
2019-05-13T07:37:43.470Z,8.80
2019-05-13T07:40:14.996Z,8.90
2019-05-13T07:42:44.146Z,8.90
2019-05-13T07:47:46.114Z,9.00
2019-05-13T07:50:21.885Z,8.10
2019-05-13T07:52:51.584Z,9.00
2019-05-13T07:55:36.913Z,9.10
2019-05-13T07:58:18.314Z,9.00
2019-05-13T08:21:45.851Z,9.40
2019-05-13T08:24:14.965Z,9.50
2019-05-13T08:35:23.949Z,10.00
2019-05-13T08:37:53.044Z,10.10
2019-05-13T08:40:28.623Z,10.20
2019-05-13T08:52:01.579Z,10.10
2019-05-13T08:54:33.105Z,10.10
2019-05-13T08:57:03.177Z,10.20
2019-05-13T08:59:32.422Z,10.20
2019-05-13T09:02:03.132Z,10.20
2019-05-13T09:04:32.225Z,10.30
2019-05-13T09:07:02.233Z,10.50
2019-05-13T09:09:32.953Z,10.70
2019-05-13T09:12:02.766Z,10.90
2019-05-13T09:14:32.509Z,11.50
2019-05-13T09:17:02.327Z,11.10
2019-05-13T09:19:32.496Z,11.20
2019-05-13T09:22:02.968Z,11.30
2019-05-13T09:24:37.242Z,11.30
2019-05-13T09:27:23.227Z,11.20
2019-05-13T09:29:54.966Z,11.30
2019-05-13T09:41:13.848Z,11.50
2019-05-13T09:43:53.710Z,11.40
2019-05-13T10:26:43.194Z,11.70
2019-05-13T10:35:23.317Z,12.00
2019-05-13T10:43:40.203Z,11.90
2019-05-13T10:57:58.957Z,11.90
2019-05-13T11:00:43.331Z,11.90
2019-05-13T11:03:12.812Z,12.80
2019-05-13T11:05:44.647Z,12.10
2019-05-13T11:08:12.868Z,12.10
2019-05-13T11:10:43.217Z,12.10
2019-05-13T11:13:50.505Z,12.10
2019-05-13T11:24:54.008Z,12.10
2019-05-13T11:30:14.151Z,12.20
2019-05-13T11:32:43.497Z,12.30
2019-05-13T12:40:15.371Z,12.00
2019-05-13T13:24:35.919Z,12.30
2019-05-13T13:37:46.579Z,12.60
2019-05-13T13:40:24.441Z,12.60
2019-05-13T13:42:46.827Z,12.70
2019-05-13T13:45:32.700Z,12.70
2019-05-13T13:48:03.944Z,12.70
2019-05-13T13:50:33.536Z,12.60
2019-05-13T14:04:09.784Z,12.30
2019-05-13T14:06:58.551Z,12.40
2019-05-13T14:11:46.549Z,12.50
2019-05-13T14:14:15.589Z,12.50
2019-05-13T14:16:46.633Z,12.60
2019-05-13T14:19:15.647Z,12.60
2019-05-13T14:21:44.779Z,12.60
2019-05-13T14:24:15.076Z,12.70
2019-05-13T14:26:44.192Z,12.60
2019-05-13T14:29:14.133Z,12.60
2019-05-13T14:34:34.978Z,12.50
2019-05-13T14:37:04.182Z,12.40
2019-05-13T14:39:36.101Z,12.50
2019-05-13T14:42:04.090Z,12.50
2019-05-13T14:44:33.313Z,12.40
2019-05-13T14:47:02.379Z,12.40
2019-05-13T14:49:31.824Z,12.40
2019-05-13T14:52:01.375Z,12.50
2019-05-13T14:54:31.380Z,12.50
2019-05-13T14:59:41.363Z,12.60
2019-05-13T15:02:11.778Z,12.50
2019-05-13T15:04:41.872Z,12.50
2019-05-13T15:07:12.102Z,12.50
2019-05-13T15:09:42.069Z,12.40
2019-05-13T15:12:11.463Z,12.50
2019-05-13T15:14:42.769Z,12.60
2019-05-13T15:17:12.780Z,13.40
2019-05-13T15:19:42.144Z,12.20
2019-05-13T15:22:13.617Z,12.50
2019-05-13T15:24:42.387Z,12.40
2019-05-13T15:27:11.491Z,12.50
2019-05-13T15:29:41.809Z,12.50
2019-05-13T15:32:11.080Z,12.50
2019-05-13T15:34:42.440Z,12.50
2019-05-13T15:37:11.379Z,12.40
2019-05-13T15:39:42.578Z,12.30
2019-05-13T15:42:11.979Z,12.20
2019-05-13T15:44:41.306Z,12.20
2019-05-13T15:47:22.937Z,12.20
2019-05-13T15:49:41.364Z,12.20
2019-05-13T15:52:11.788Z,12.10
2019-05-13T15:54:41.504Z,10.90
2019-05-13T15:59:51.608Z,12.00
2019-05-13T16:02:22.657Z,11.90
2019-05-13T16:05:00.300Z,12.00
2019-05-13T16:07:22.802Z,12.10
2019-05-13T16:09:52.649Z,12.10
2019-05-13T16:12:21.932Z,12.10
2019-05-13T16:17:41.204Z,12.00
2019-05-13T16:20:03.196Z,11.90
2019-05-13T16:22:32.367Z,11.90
2019-05-13T16:25:01.644Z,11.90
2019-05-13T16:27:31.211Z,11.90
2019-05-13T16:30:02.435Z,11.80
2019-05-13T16:32:31.893Z,11.70
2019-05-13T16:35:02.747Z,11.70
2019-05-13T16:37:31.887Z,11.70
2019-05-13T16:40:01.142Z,11.70
2019-05-13T16:42:31.696Z,11.80
2019-05-13T16:45:00.989Z,11.80
2019-05-13T16:47:31.859Z,11.80
2019-05-13T16:50:02.754Z,11.80
2019-05-13T16:52:32.240Z,11.80
2019-05-13T16:55:02.593Z,11.70
2019-05-13T16:57:32.734Z,11.70
2019-05-13T17:00:02.495Z,11.70
2019-05-13T17:02:31.853Z,11.70
2019-05-13T17:05:01.410Z,11.70
2019-05-13T17:07:31.787Z,11.60
2019-05-13T17:10:03.535Z,11.60
2019-05-13T17:12:31.805Z,11.50
2019-05-13T17:17:52.326Z,11.40
2019-05-13T17:20:21.661Z,11.30
2019-05-13T17:22:51.264Z,11.30
2019-05-13T17:25:20.509Z,11.20
2019-05-13T17:27:51.463Z,11.20
2019-05-13T17:30:22.162Z,11.10
2019-05-13T17:32:51.644Z,11.10
2019-05-13T17:35:21.909Z,11.10
2019-05-13T17:37:51.325Z,11.10
2019-05-13T17:40:22.445Z,11.10
2019-05-13T17:42:51.416Z,11.10
2019-05-13T17:48:25.497Z,11.00
2019-05-13T17:50:41.452Z,11.00
2019-05-13T17:53:11.382Z,11.00
2019-05-13T17:55:40.756Z,11.00
2019-05-13T17:58:11.652Z,11.00
2019-05-13T18:00:41.493Z,10.90
2019-05-13T18:03:11.373Z,10.90
2019-05-13T18:05:42.071Z,10.90
2019-05-13T18:08:11.423Z,10.80
2019-05-13T18:10:41.955Z,10.80
2019-05-13T18:13:12.667Z,10.80
2019-05-13T18:15:41.959Z,10.80
2019-05-13T18:18:12.018Z,10.80
2019-05-13T18:20:41.583Z,10.80
2019-05-13T18:26:07.085Z,10.60
2019-05-13T18:28:36.177Z,10.70
2019-05-13T18:31:05.330Z,10.70
2019-05-13T18:33:34.532Z,10.60
2019-05-13T18:36:03.761Z,10.60
2019-05-13T18:38:32.918Z,10.50
2019-05-13T18:41:02.137Z,10.50
2019-05-13T18:43:32.152Z,10.50
2019-05-13T18:46:02.141Z,10.50
2019-05-13T18:48:32.260Z,10.50
2019-05-13T18:51:01.607Z,10.40
2019-05-13T18:53:32.100Z,10.40
2019-05-13T18:56:02.098Z,10.40
2019-05-13T18:58:31.768Z,10.30
2019-05-13T19:01:01.459Z,10.20
2019-05-13T19:03:32.337Z,10.20
2019-05-13T19:06:01.662Z,10.20
2019-05-13T19:08:32.068Z,9.60
2019-05-13T19:11:01.441Z,10.20
2019-05-13T19:13:32.374Z,10.10
2019-05-13T19:16:02.374Z,10.10
2019-05-13T19:18:32.165Z,10.10
2019-05-13T19:21:01.930Z,10.10
2019-05-13T19:23:31.574Z,10.00
2019-05-13T19:26:02.000Z,10.10
2019-05-13T19:28:31.736Z,10.00
2019-05-13T19:31:02.184Z,10.00
2019-05-13T19:33:31.702Z,10.00
2019-05-13T19:36:01.433Z,10.00
2019-05-13T19:38:31.921Z,9.90
2019-05-13T19:41:01.812Z,9.90
2019-05-13T19:43:31.550Z,9.90
2019-05-13T19:46:01.632Z,9.90
2019-05-13T19:48:32.606Z,9.90
2019-05-13T19:51:01.813Z,9.80
2019-05-13T19:53:31.969Z,9.80
2019-05-13T19:56:01.604Z,9.80
2019-05-13T19:58:32.367Z,9.80
2019-05-13T20:01:01.687Z,9.70
2019-05-13T20:03:31.702Z,9.70
2019-05-13T20:06:02.172Z,9.70
2019-05-13T20:08:32.097Z,9.70
2019-05-13T20:11:02.494Z,9.70
2019-05-13T20:13:31.668Z,9.70
2019-05-13T20:16:01.478Z,10.00
2019-05-13T20:18:32.020Z,9.30
2019-05-13T20:21:01.464Z,9.60
2019-05-13T20:23:32.097Z,9.60
2019-05-13T20:26:01.350Z,9.60
2019-05-13T20:28:31.655Z,9.60
2019-05-13T20:31:01.871Z,9.60
2019-05-13T20:33:32.020Z,9.60
2019-05-13T20:36:01.758Z,9.50
2019-05-13T20:38:31.691Z,9.50
2019-05-13T20:41:01.512Z,9.50
2019-05-13T20:43:32.798Z,8.50
2019-05-13T20:46:02.027Z,9.50
2019-05-13T20:48:31.983Z,9.50
2019-05-13T20:51:02.641Z,9.50
2019-05-13T20:53:31.949Z,9.50
2019-05-13T20:56:02.123Z,9.50
2019-05-13T20:58:31.868Z,9.40
2019-05-13T21:01:02.257Z,9.50
2019-05-13T21:03:31.854Z,9.40
2019-05-13T21:06:00.979Z,9.40
2019-05-13T21:08:32.172Z,9.30
2019-05-13T21:11:02.287Z,9.30
2019-05-13T21:13:31.958Z,9.20
2019-05-13T21:16:02.250Z,9.20
2019-05-13T21:18:31.810Z,9.10
2019-05-13T21:21:01.062Z,9.10
2019-05-13T21:23:31.304Z,9.00
2019-05-13T21:26:01.709Z,9.00
2019-05-13T21:28:30.840Z,9.00
2019-05-13T21:31:02.190Z,8.90
2019-05-13T21:33:31.434Z,8.90
2019-05-13T21:36:01.716Z,8.80
2019-05-13T21:38:32.404Z,8.80
2019-05-13T21:41:01.639Z,8.80
2019-05-13T21:43:32.372Z,8.80
2019-05-13T21:46:02.146Z,8.80
2019-05-13T21:48:32.455Z,8.70
2019-05-13T21:51:01.810Z,8.70
2019-05-13T21:53:32.690Z,8.70
2019-05-13T21:56:02.284Z,9.20
2019-05-13T21:58:31.638Z,8.70
2019-05-13T22:01:01.663Z,8.60
2019-05-13T22:03:33.438Z,8.60
2019-05-13T22:06:02.138Z,8.60
2019-05-13T22:08:32.087Z,8.60
2019-05-13T22:11:01.864Z,8.50
2019-05-13T22:13:31.681Z,8.50
2019-05-13T22:16:01.563Z,8.50
2019-05-13T22:18:31.536Z,8.50
2019-05-13T22:21:01.422Z,8.50
2019-05-13T22:23:32.025Z,8.40
2019-05-13T22:26:01.814Z,8.40
2019-05-13T22:28:31.410Z,8.40
2019-05-13T22:31:01.415Z,8.40
2019-05-13T22:33:32.428Z,8.40
2019-05-13T22:36:02.000Z,8.40
2019-05-13T22:38:32.236Z,8.40
2019-05-13T22:41:01.688Z,8.40
2019-05-13T22:43:32.098Z,8.30
2019-05-13T22:46:01.480Z,8.30
2019-05-13T22:48:31.785Z,8.30
2019-05-13T22:51:01.471Z,8.30
2019-05-13T22:53:31.820Z,8.30
2019-05-13T22:56:01.187Z,8.20
2019-05-13T22:58:32.170Z,8.20
2019-05-13T23:01:02.523Z,8.20
2019-05-13T23:03:32.376Z,8.20
2019-05-13T23:06:01.820Z,8.20
2019-05-13T23:08:32.389Z,8.20
2019-05-13T23:11:02.177Z,8.10
2019-05-13T23:13:31.546Z,8.10
2019-05-13T23:16:02.367Z,8.10
2019-05-13T23:18:32.467Z,8.10
2019-05-13T23:21:02.290Z,8.10
2019-05-13T23:23:31.644Z,8.10
2019-05-13T23:26:00.858Z,8.10
2019-05-13T23:28:32.065Z,8.00
2019-05-13T23:31:01.670Z,8.00
2019-05-13T23:33:31.467Z,8.00
2019-05-13T23:36:01.511Z,8.00
2019-05-13T23:38:32.035Z,8.00
2019-05-13T23:43:57.422Z,7.90
2019-05-13T23:46:26.469Z,7.90
2019-05-13T23:48:55.520Z,7.90
2019-05-13T23:51:24.585Z,7.90
2019-05-13T23:53:53.641Z,7.90
2019-05-13T23:56:22.695Z,7.90
2019-05-13T23:58:52.027Z,7.80
